• Join FlightAware (Why Join?)
  • Login
  • US Flag 
11:11PM EDT


 

Airport Tracker/Info


-or-


 

Live Flight TrackerFlight Track Log ✈ EJA140 ✈ 01-Aug-2012 ✈ KVNY - KRIL

Flight Track Log - Related Links

Times and Time Zones

All times are in EDT time to prevent confusion due to time zone crossing. See the EJA140 flight status page for this flight to view local times or setup timezone preferences in your user account.

Time Position Orientation Groundspeed Altitude Reporting Facility
EDT Latitude Longitude Course Direction KTS MPH feet Rate Location/Type
01:57PM 34.1431 -118.4303 45° Northeast 209 241 3,600  Level Los Angeles Center
01:58PM 34.1772 -118.3886 348° North 127 146 6,900 2,340 Climbing Los Angeles Center
01:59PM 34.2394 -118.4053 343° North 158 182 8,300 1,920 Climbing Los Angeles Center
02:00PM 34.3267 -118.4378 North 244 281 10,800 1,860 Climbing Los Angeles Center
02:01PM 34.4039 -118.4300 52° Northeast 317 365 12,100 1,500 Climbing Los Angeles Center
02:02PM 34.4619 -118.3383 52° Northeast 310 357 13,900 1,860 Climbing Los Angeles Center
02:03PM 34.5264 -118.2367 54° Northeast 337 388 15,900 1,800 Climbing Los Angeles Center
02:04PM 34.5758 -118.1547 55° Northeast 345 397 17,600 1,500 Climbing Los Angeles Center
02:05PM 34.6294 -118.0625 80° East 338 389 18,900 1,440 Climbing Los Angeles Center
02:06PM 34.6458 -117.9494 84° East 323 372 20,500 1,380 Climbing Los Angeles Center
02:07PM 34.6558 -117.8308 78° East 333 383 21,700 1,200 Climbing Los Angeles Center
02:08PM 34.6808 -117.6925 73° East 365 420 23,000 1,200 Climbing Los Angeles Center
02:09PM 34.7114 -117.5692 73° East 370 426 24,100 1,080 Climbing Los Angeles Center
02:10PM 34.7442 -117.4383 73° East 380 437 25,200 1,200 Climbing Los Angeles Center
02:11PM 34.7769 -117.3100 73° East 385 443 26,500 1,200 Climbing Los Angeles Center
02:12PM 34.8094 -117.1839 72° East 390 449 27,600 960 Climbing Los Angeles Center
02:13PM 34.8439 -117.0528 54° Northeast 395 455 28,500 900 Climbing Los Angeles Center
02:14PM 34.9114 -116.9394 51° Northeast 400 460 29,500 960 Climbing Los Angeles Center
02:15PM 34.9872 -116.8261 50° Northeast 413 475 30,500 1,020 Climbing Los Angeles Center
02:16PM 35.0608 -116.7175 51° Northeast 413 475 31,600 1,140 Climbing Los Angeles Center
02:17PM 35.1344 -116.6064 50° Northeast 418 481 32,800 1,200 Climbing Los Angeles Center
02:18PM 35.2078 -116.4975 52° Northeast 418 481 34,000 960 Climbing Los Angeles Center
02:19PM 35.2644 -116.4086 51° Northeast 413 475 34,800 780 Climbing Los Angeles Center
02:20PM 35.3481 -116.2817 50° Northeast 413 475 35,600 660 Climbing Los Angeles Center
02:21PM 35.4253 -116.1672 53° Northeast 413 475 36,200 600 Climbing Los Angeles Center
02:22PM 35.4942 -116.0550 50° Northeast 413 475 36,800 600 Climbing Los Angeles Center
02:23PM 35.5692 -115.9450 51° Northeast 418 481 37,400 540 Climbing Los Angeles Center
02:24PM 35.6419 -115.8350 52° Northeast 418 481 37,900 480 Climbing Los Angeles Center
02:25PM 35.7147 -115.7222 49° Northeast 418 481 38,400 420 Climbing Los Angeles Center
02:26PM 35.7894 -115.6144 54° Northeast 418 481 38,800 300 Climbing Los Angeles Center
02:27PM 35.8600 -115.4961 51° Northeast 418 481 39,000 60 Climbing Los Angeles Center
02:28PM 35.9303 -115.3903 52° Northeast 426 490 39,000  Level Los Angeles Center
02:29PM 36.0047 -115.2742 55° Northeast 431 496 39,000  Level Los Angeles Center
02:30PM 36.0767 -115.1475 67° East 436 502 39,000  Level Los Angeles Center
02:31PM 36.1256 -115.0056 69° East 436 502 39,000  Level Los Angeles Center
02:32PM 36.1700 -114.8608 69° East 441 507 39,000  Level Los Angeles Center
02:33PM 36.2144 -114.7186 69° East 441 507 39,000  Level Los Angeles Center
02:34PM 36.2586 -114.5736 70° East 441 507 39,000  Level Los Angeles Center
02:35PM 36.3025 -114.4258 69° East 441 507 39,000  Level Los Angeles Center
02:36PM 36.3461 -114.2831 70° East 441 507 39,000  Level Los Angeles Center
02:37PM 36.3897 -114.1350 69° East 446 513 39,000  Level Los Angeles Center
02:38PM 36.4353 -113.9867 70° East 451 519 39,000  Level Los Angeles Center
02:39PM 36.4786 -113.8383 69° East 451 519 39,000  Level Los Angeles Center
02:40PM 36.5217 -113.6975 69° East 443 510 39,000  Level Los Angeles Center
02:41PM 36.5686 -113.5464 70° East 443 510 39,000  Level Los Angeles Center
02:42PM 36.6114 -113.3975 70° East 448 516 39,000  Level Los Angeles Center
02:43PM 36.6539 -113.2486 71° East 448 516 39,000  Level Los Angeles Center
02:44PM 36.6961 -113.0992 70° East 448 516 39,000  Level Los Angeles Center
02:45PM 36.7383 -112.9525 71° East 448 516 39,000  Level Los Angeles Center
02:46PM 36.7839 -112.7900 70° East 448 516 39,000  Level Los Angeles Center
02:47PM 36.8278 -112.6403 71° East 448 516 39,000  Level Los Angeles Center
02:48PM 36.8672 -112.4933 70° East 448 516 39,000  Level Los Angeles Center
02:49PM 36.9181 -112.3167 71° East 453 521 39,000  Level Denver Center
02:50PM 36.9600 -112.1681 71° East 450 518 39,000  Level Denver Center
02:51PM 37.0017 -112.0169 71° East 452 520 39,000  Level Denver Center
02:52PM 37.0519 -111.8367 71° East 453 521 39,000  Level Denver Center
02:53PM 37.0931 -111.6864 64° Northeast 452 520 39,000  Level Denver Center
02:54PM 37.1494 -111.5433 59° Northeast 456 525 39,000  Level Denver Center
02:55PM 37.2133 -111.4072 58° Northeast 449 517 39,000  Level Denver Center
02:56PM 37.2808 -111.2703 58° Northeast 456 525 39,000  Level Denver Center
02:58PM 37.3478 -111.1328 59° Northeast 456 525 39,000  Level Denver Center
02:59PM 37.4142 -110.9953 59° Northeast 455 524 39,000  Level Denver Center
03:00PM 37.4806 -110.8572 59° Northeast 455 524 39,000  Level Denver Center
03:01PM 37.5478 -110.7181 59° Northeast 458 527 39,000  Level Denver Center
03:02PM 37.6147 -110.5789 59° Northeast 457 526 39,000  Level Denver Center
03:03PM 37.6944 -110.4114 59° Northeast 459 528 39,000  Level Denver Center
03:04PM 37.7572 -110.2794 59° Northeast 458 527 39,000  Level Denver Center
03:05PM 37.8197 -110.1472 59° Northeast 457 526 39,000  Level Denver Center
03:06PM 37.8914 -109.9942 59° Northeast 454 522 39,000  Level Denver Center
03:07PM 37.9544 -109.8622 60° Northeast 455 524 39,000  Level Denver Center
03:08PM 38.0250 -109.7083 59° Northeast 453 521 39,000  Level Denver Center
03:09PM 38.0906 -109.5681 60° Northeast 454 522 39,000  Level Denver Center
03:10PM 38.1517 -109.4356 60° Northeast 455 524 39,000  Level Denver Center
03:11PM 38.2225 -109.2811 59° Northeast 455 524 39,000 -480 Level Denver Center
03:12PM 38.2836 -109.1494 60° Northeast 453 521 38,100 -1,260 Descending Denver Center
03:13PM 38.3536 -108.9942 61° Northeast 452 520 36,500 -1,500 Descending Denver Center
03:14PM 38.4111 -108.8636 59° Northeast 445 512 35,100 -1,500 Descending Denver Center
03:15PM 38.4794 -108.7167 60° Northeast 436 502 33,400 -1,560 Descending Denver Center
03:16PM 38.5389 -108.5858 60° Northeast 442 509 32,000 -1,560 Descending Denver Center
03:17PM 38.6114 -108.4219 60° Northeast 472 543 30,300 -1,500 Descending Denver Center
03:18PM 38.6725 -108.2850 60° Northeast 466 536 28,900 -1,500 Descending Denver Center
03:19PM 38.7442 -108.1244 61° Northeast 467 537 27,200 -1,500 Descending Denver Center
03:20PM 38.8056 -107.9836 60° Northeast 473 544 25,800 -1,500 Descending Denver Center
03:21PM 38.8783 -107.8189 60° Northeast 476 548 24,100 -1,380 Descending Denver Center
03:22PM 38.9392 -107.6844 61° Northeast 462 532 23,000 -1,380 Descending Denver Center
03:23PM 39.0053 -107.5297 60° Northeast 449 517 21,300 -1,500 Descending Denver Center
03:24PM 39.0628 -107.3992 77° East 443 510 20,000 -660 Descending Denver Center
03:25PM 39.0867 -107.2606 146° Southeast 363 418 20,000  Level Denver Center
03:26PM 39.0283 -107.2092 251° West 305 351 20,000  Level Denver Center
03:27PM 39.0050 -107.2981 317° Northwest 314 361 20,000 -600 Level Denver Center
03:29PM 39.0822 -107.3900 334° Northwest 348 400 18,800 -1,440 Descending Denver Center
03:30PM 39.1597 -107.4394 335° Northwest 331 381 17,100 -1,380 Descending Denver Center
03:31PM 39.2458 -107.4919 326° Northwest 311 358 16,000 -1,080 Descending Denver Center
03:32PM 39.3042 -107.5422 327° Northwest 278 320 15,000 -1,500 Descending Denver Center
03:33PM 39.3767 -107.6025 340° North 274 315 13,000 -2,100 Descending Denver Center
03:34PM 39.4417 -107.6336 33° Northeast 271 312 10,700 -1,680 Descending Denver Center
03:35PM 39.4950 -107.5894 334° Northwest 216 249 9,600 -1,680 Descending Denver Center
03:36PM 39.5303 -107.6114 334° Northwest 182 209 7,300 -2,280 Descending Denver Center